Time;durP1;ratioP1;P1;durP2;ratioP2;P2;SDS_P1;SDS_P2;PMS_P1;PMS_P2;Temp;Humidity;BMP_temperature;BMP_pressure;BME280_temperature;BME280_humidity;BME280_pressure;Samples;Min_cycle;Max_cycle;Signal;HPM_P1;HPM_P2
2023/04/08 00:01:27;;;;;;;11.32;5.95;;;;;;;9.65;69.26;101020.22;4147856;28;20049;-68
2023/04/08 00:03:31;;;;;;;11.35;7.15;;;;;;;9.60;69.26;101021.81;4146926;28;20042;-69
2023/04/08 00:05:34;;;;;;;10.32;6.40;;;;;;;9.59;69.23;101020.03;4147573;28;20518;-68
2023/04/08 00:07:37;;;;;;;10.07;6.40;;;;;;;9.60;69.12;101019.22;4146313;28;20049;-68
2023/04/08 00:09:40;;;;;;;11.63;7.38;;;;;;;9.60;69.19;101016.63;4147391;28;20168;-68
2023/04/08 00:11:43;;;;;;;11.60;7.72;;;;;;;9.59;68.97;101026.13;4146110;28;20073;-67
2023/04/08 00:13:47;;;;;;;12.95;7.28;;;;;;;9.63;69.16;101015.84;4146823;28;20042;-68
2023/04/08 00:15:50;;;;;;;14.00;7.65;;;;;;;9.65;68.81;101007.25;4147492;28;20103;-68
2023/04/08 00:17:53;;;;;;;10.25;6.68;;;;;;;9.76;68.31;101018.78;4147464;28;20128;-68
2023/04/08 00:19:56;;;;;;;12.73;7.50;;;;;;;9.83;68.03;101012.03;4146206;28;20038;-68
2023/04/08 00:21:59;;;;;;;8.80;5.82;;;;;;;9.81;68.74;101016.28;4147346;28;20041;-68
2023/04/08 00:24:02;;;;;;;11.38;6.60;;;;;;;9.77;68.62;101023.16;4145474;28;20042;-68
2023/04/08 00:26:05;;;;;;;11.77;7.28;;;;;;;9.77;69.21;101017.09;4149544;28;20049;-67
2023/04/08 00:28:08;;;;;;;10.63;6.85;;;;;;;9.78;68.71;101022.31;4150408;28;20042;-68
2023/04/08 00:30:12;;;;;;;11.40;6.90;;;;;;;9.84;68.49;101020.69;4150294;28;20041;-68
2023/04/08 00:32:15;;;;;;;10.15;7.13;;;;;;;9.90;68.33;101020.84;4149549;28;20547;-68
2023/04/08 00:34:24;;;;;;;9.77;6.75;;;;;;;9.88;68.43;101017.34;4149197;28;20045;-68
2023/04/08 00:36:28;;;;;;;9.07;6.10;;;;;;;9.79;68.45;101021.44;4149080;28;20046;-68
2023/04/08 00:38:31;;;;;;;12.05;8.55;;;;;;;9.78;68.61;101022.31;4149063;28;20557;-69
2023/04/08 00:40:35;;;;;;;12.48;7.82;;;;;;;9.76;68.68;101021.38;4149056;28;20038;-68
2023/04/08 00:42:38;;;;;;;10.30;6.63;;;;;;;9.77;68.54;101020.53;4148322;28;20041;-68
2023/04/08 00:44:40;;;;;;;13.82;7.63;;;;;;;9.75;68.77;101022.25;4149088;28;20124;-69
2023/04/08 00:46:45;;;;;;;13.77;9.05;;;;;;;9.73;69.26;101026.50;4150141;28;20049;-68
2023/04/08 00:48:48;;;;;;;11.55;8.00;;;;;;;9.77;68.89;101025.75;4150084;28;20042;-68
2023/04/08 00:50:51;;;;;;;14.27;7.82;;;;;;;9.71;69.32;101023.00;4148837;28;20040;-68
2023/04/08 00:52:54;;;;;;;11.52;7.68;;;;;;;9.70;69.14;101020.34;4148190;28;20463;-68
2023/04/08 00:54:57;;;;;;;11.38;8.75;;;;;;;9.68;69.40;101027.19;4132526;28;20046;-68
2023/04/08 00:57:00;;;;;;;13.68;9.60;;;;;;;9.67;69.37;101021.16;4149987;28;20496;-68
2023/04/08 00:59:03;;;;;;;12.73;8.93;;;;;;;9.67;69.38;101028.06;4148693;28;20050;-69
2023/04/08 01:01:12;;;;;;;12.82;8.25;;;;;;;9.69;69.48;101027.25;4132389;28;20447;-69
2023/04/08 01:03:23;;;;;;;13.88;9.80;;;;;;;9.69;69.39;101029.84;4148106;28;20450;-69
2023/04/08 01:05:31;;;;;;;16.20;10.30;;;;;;;9.82;68.83;101027.59;4148723;28;20503;-69
2023/04/08 01:07:46;;;;;;;12.93;8.63;;;;;;;9.79;69.06;101031.84;4148673;28;20133;-69
2023/04/08 01:09:54;;;;;;;14.85;9.52;;;;;;;9.83;68.56;101029.31;4149820;28;20381;-68
2023/04/08 01:11:59;;;;;;;14.43;10.25;;;;;;;9.88;68.66;101027.75;4149610;28;20034;-69
2023/04/08 01:14:06;;;;;;;13.07;9.23;;;;;;;9.87;68.67;101028.56;4149208;28;20042;-69
2023/04/08 01:16:12;;;;;;;15.02;10.40;;;;;;;9.87;68.53;101024.28;4149756;28;20132;-69
2023/04/08 01:18:17;;;;;;;17.85;9.93;;;;;;;9.90;68.57;101018.25;4148519;28;20137;-69
2023/04/08 01:20:20;;;;;;;;;;;;;;;9.89;68.45;101032.09;4150359;28;20034;-68
2023/04/08 01:22:46;;;;;;;15.65;9.45;;;;;;;9.82;68.79;101025.00;4148079;28;19975;-69
2023/04/08 01:24:55;;;;;;;13.45;10.45;;;;;;;9.96;68.74;101023.63;4132139;28;20089;-69
2023/04/08 01:27:01;;;;;;;14.25;10.00;;;;;;;9.84;68.59;101016.41;4148336;28;20042;-69
2023/04/08 01:29:05;;;;;;;12.98;9.60;;;;;;;9.81;68.77;101018.03;4149699;28;20049;-69
2023/04/08 01:31:08;;;;;;;13.88;9.57;;;;;;;9.98;68.45;101015.88;4148137;28;20034;-69
2023/04/08 01:33:13;;;;;;;13.25;9.60;;;;;;;9.86;68.58;101019.91;4147706;28;20112;-69
2023/04/08 01:35:16;;;;;;;14.75;8.82;;;;;;;9.82;68.66;101027.59;4148239;28;20038;-69
2023/04/08 01:37:20;;;;;;;11.57;8.88;;;;;;;9.79;69.17;101021.44;4148837;28;20048;-69
2023/04/08 01:39:27;;;;;;;14.02;8.95;;;;;;;9.77;68.70;101028.34;4148114;28;20470;-69
2023/04/08 01:41:32;;;;;;;12.25;8.57;;;;;;;9.92;68.15;101024.38;4148102;28;20034;-69
2023/04/08 01:43:39;;;;;;;12.80;8.30;;;;;;;9.84;68.55;101023.31;4147464;28;20034;-69
2023/04/08 01:45:43;;;;;;;11.40;8.07;;;;;;;9.74;68.39;101019.59;4149011;28;20073;-69
2023/04/08 01:47:47;;;;;;;;;;;;;;;9.67;69.17;101025.47;4148478;28;20042;-69
2023/04/08 01:49:50;;;;;;;11.10;8.43;;;;;;;9.69;68.66;101029.84;4147967;28;20014;-68
2023/04/08 01:51:55;;;;;;;11.77;8.63;;;;;;;9.75;68.77;101019.66;4147736;28;20072;-69
2023/04/08 01:53:58;;;;;;;11.07;7.70;;;;;;;9.68;68.59;101019.41;4148576;28;20038;-68
2023/04/08 01:56:06;;;;;;;11.20;7.93;;;;;;;9.65;68.94;101020.22;4147869;28;20042;-69
2023/04/08 01:58:12;;;;;;;12.98;9.23;;;;;;;9.75;68.54;101024.84;4147912;28;20041;-69
2023/04/08 02:00:19;;;;;;;12.50;8.70;;;;;;;9.73;68.73;101023.91;4147846;28;20045;-68
2023/04/08 02:02:26;;;;;;;11.15;7.95;;;;;;;9.68;68.94;101017.72;4148333;28;20500;-69
2023/04/08 02:04:29;;;;;;;10.95;7.85;;;;;;;9.65;69.06;101017.63;4147895;28;20048;-68
2023/04/08 02:06:34;;;;;;;;;;;;;;;9.54;69.31;101024.25;4149338;28;20050;-68
2023/04/08 02:08:37;;;;;;;11.00;7.38;;;;;;;9.50;69.61;101023.25;4147705;28;19933;-68
2023/04/08 02:10:40;;;;;;;12.55;8.88;;;;;;;9.50;69.78;101025.00;4147677;28;20037;-68
2023/04/08 02:12:43;;;;;;;15.80;9.82;;;;;;;9.51;70.03;101019.84;4147000;28;20041;-68
2023/04/08 02:14:47;;;;;;;14.13;9.15;;;;;;;9.50;69.75;101019.81;4147589;28;20042;-69
2023/04/08 02:16:54;;;;;;;13.50;9.85;;;;;;;9.55;69.67;101025.97;4147591;28;20117;-68
2023/04/08 02:19:01;;;;;;;12.90;9.18;;;;;;;9.58;70.17;101023.50;4147630;28;20095;-68
2023/04/08 02:21:09;;;;;;;15.85;10.93;;;;;;;9.63;69.67;101024.50;4148596;28;20537;-68
2023/04/08 02:23:15;;;;;;;16.10;10.85;;;;;;;9.68;69.51;101028.09;4146921;28;20125;-69
2023/04/08 02:25:23;;;;;;;15.98;10.85;;;;;;;9.70;69.14;101023.81;4147541;28;20108;-69
2023/04/08 02:27:28;;;;;;;12.90;9.32;;;;;;;9.70;69.62;101023.81;4147453;28;20046;-68
2023/04/08 02:29:32;;;;;;;14.45;9.98;;;;;;;9.69;69.22;101027.25;4147381;28;20132;-68
2023/04/08 02:31:35;;;;;;;14.43;10.50;;;;;;;9.69;69.57;101021.19;4147122;28;20113;-69
2023/04/08 02:33:40;;;;;;;17.67;11.63;;;;;;;9.67;69.73;101031.53;4146686;28;20077;-69
2023/04/08 02:35:45;;;;;;;17.55;10.88;;;;;;;9.69;69.65;101021.19;4147167;28;20044;-69
2023/04/08 02:37:47;;;;;;;12.98;9.00;;;;;;;9.64;69.38;101023.66;4163612;28;20045;-68
2023/04/08 02:39:51;;;;;;;16.42;11.55;;;;;;;9.73;69.10;101028.22;4147270;28;20038;-68
2023/04/08 02:41:53;;;;;;;16.30;10.82;;;;;;;9.75;68.79;101027.44;4147008;28;20046;-68
2023/04/08 02:43:57;;;;;;;18.42;12.07;;;;;;;9.73;69.18;101026.50;4147734;28;20050;-68
2023/04/08 02:46:02;;;;;;;16.55;10.82;;;;;;;9.70;69.64;101022.94;4148340;28;20500;-69
2023/04/08 02:48:06;;;;;;;16.33;12.15;;;;;;;9.70;69.07;101030.75;4146417;28;20049;-69
2023/04/08 02:50:10;;;;;;;15.23;10.80;;;;;;;9.65;69.48;101033.22;4147076;28;20100;-68
2023/04/08 02:52:13;;;;;;;15.00;10.63;;;;;;;9.62;69.38;101030.50;4146340;28;20049;-68
2023/04/08 02:54:16;;;;;;;17.75;12.63;;;;;;;9.63;69.69;101027.09;4163352;28;20507;-69
2023/04/08 02:56:20;;;;;;;14.05;9.85;;;;;;;9.63;69.47;101026.22;4146970;28;20042;-69
2023/04/08 02:58:23;;;;;;;15.93;12.48;;;;;;;9.65;69.87;101025.44;4148214;28;20048;-68
2023/04/08 03:00:26;;;;;;;17.95;11.95;;;;;;;9.70;70.00;101021.22;4148121;28;20038;-69
2023/04/08 03:02:30;;;;;;;18.48;13.88;;;;;;;9.66;69.76;101032.34;4146226;28;20611;-69
2023/04/08 03:04:34;;;;;;;18.73;12.10;;;;;;;9.68;69.65;101027.19;4148160;28;20500;-69
2023/04/08 03:06:40;;;;;;;17.83;11.68;;;;;;;9.60;69.79;101029.59;4147055;28;20042;-69
2023/04/08 03:08:42;;;;;;;17.73;12.75;;;;;;;9.55;69.76;101036.38;4148322;28;20042;-69
2023/04/08 03:10:45;;;;;;;18.80;11.25;;;;;;;9.52;70.24;101024.22;4148002;28;20132;-69
2023/04/08 03:12:50;;;;;;;18.20;12.15;;;;;;;9.56;70.48;101023.47;4130136;28;20042;-69
2023/04/08 03:14:54;;;;;;;17.75;12.93;;;;;;;9.58;70.46;101023.50;4146723;28;20053;-68
2023/04/08 03:16:57;;;;;;;18.30;12.20;;;;;;;9.57;70.37;101032.13;4146823;28;20045;-69
2023/04/08 03:19:01;;;;;;;16.98;11.07;;;;;;;9.66;69.68;101032.34;4146837;28;20057;-68
2023/04/08 03:21:04;;;;;;;16.90;12.10;;;;;;;9.65;69.90;101027.13;4146630;28;20038;-68
2023/04/08 03:23:08;;;;;;;19.67;13.60;;;;;;;9.66;69.96;101029.75;4147277;28;20034;-69
2023/04/08 03:25:11;;;;;;;17.25;12.60;;;;;;;9.66;69.80;101027.16;4147948;28;20100;-68
2023/04/08 03:27:14;;;;;;;19.23;13.10;;;;;;;9.64;70.04;101026.25;4148123;28;20049;-69
2023/04/08 03:29:17;;;;;;;19.48;12.93;;;;;;;9.66;69.87;101028.88;4148092;28;20042;-68
2023/04/08 03:31:20;;;;;;;16.33;11.05;;;;;;;9.67;70.03;101035.84;4147660;28;20042;-68
2023/04/08 03:33:23;;;;;;;18.15;12.63;;;;;;;9.69;69.71;101031.56;4147639;28;20044;-68
2023/04/08 03:35:27;;;;;;;18.33;13.68;;;;;;;9.71;69.42;101035.06;4147766;28;20034;-69
2023/04/08 03:37:30;;;;;;;16.70;12.50;;;;;;;9.69;70.23;101037.63;4147772;28;20050;-69
2023/04/08 03:39:34;;;;;;;20.15;13.80;;;;;;;9.67;70.19;101038.44;4147803;28;20096;-68
2023/04/08 03:41:37;;;;;;;21.88;13.90;;;;;;;9.68;69.81;101037.59;4146429;28;20054;-69
2023/04/08 03:43:40;;;;;;;20.40;14.20;;;;;;;9.66;70.10;101040.16;4147124;28;20046;-68
2023/04/08 03:45:42;;;;;;;21.10;14.63;;;;;;;9.64;70.15;101036.63;4146440;28;20096;-68
2023/04/08 03:47:45;;;;;;;19.00;13.15;;;;;;;9.61;69.69;101036.56;4147703;28;20045;-68
2023/04/08 03:49:48;;;;;;;20.00;14.70;;;;;;;9.60;69.82;101035.66;4147652;28;20531;-69
2023/04/08 03:51:51;;;;;;;18.13;12.63;;;;;;;9.64;69.91;101033.13;4147511;28;20037;-68
2023/04/08 03:53:54;;;;;;;18.60;12.75;;;;;;;9.59;70.37;101033.03;4147069;28;20046;-68
2023/04/08 03:55:59;;;;;;;21.90;15.43;;;;;;;9.65;70.21;101042.69;4147649;28;20064;-68
2023/04/08 03:58:02;;;;;;;;;;;;;;;9.62;69.92;101038.28;4148078;28;20125;-68
2023/04/08 04:00:06;;;;;;;18.98;13.73;;;;;;;9.55;70.00;101041.56;4150167;28;19928;-68
2023/04/08 04:02:13;;;;;;;20.42;13.85;;;;;;;9.57;70.14;101045.09;4150206;28;20050;-68
2023/04/08 04:04:17;;;;;;;20.65;14.68;;;;;;;9.57;70.03;101045.97;4149605;28;20054;-70
2023/04/08 04:06:20;;;;;;;22.52;14.68;;;;;;;9.59;70.16;101043.41;4150813;28;20054;-68
2023/04/08 04:08:22;;;;;;;19.02;13.57;;;;;;;9.52;70.43;101044.06;4150830;28;20128;-68
2023/04/08 04:10:25;;;;;;;19.27;13.32;;;;;;;9.53;70.35;101045.84;4150795;28;20050;-68
2023/04/08 04:12:29;;;;;;;20.23;14.65;;;;;;;9.56;70.00;101048.50;4149988;28;20038;-69
2023/04/08 04:14:32;;;;;;;21.33;15.00;;;;;;;9.52;70.16;101051.84;4165896;28;20041;-69
2023/04/08 04:16:35;;;;;;;24.25;16.45;;;;;;;9.58;70.19;101047.72;4149420;28;20042;-69
2023/04/08 04:18:38;;;;;;;20.40;15.00;;;;;;;9.65;70.03;101045.28;4149300;28;20046;-69
2023/04/08 04:20:41;;;;;;;20.40;14.82;;;;;;;9.56;70.12;101053.72;4150600;28;20042;-69
2023/04/08 04:22:44;;;;;;;21.00;14.63;;;;;;;9.56;70.13;101058.91;4132370;28;20061;-68
2023/04/08 04:24:48;;;;;;;23.02;15.10;;;;;;;9.60;70.03;101052.97;4150570;28;20065;-69
2023/04/08 04:26:51;;;;;;;19.63;14.30;;;;;;;9.56;70.28;101054.59;4150544;28;20037;-69
2023/04/08 04:28:55;;;;;;;21.75;15.50;;;;;;;9.55;70.13;101057.13;4150448;28;20129;-69
2023/04/08 04:30:58;;;;;;;22.35;14.95;;;;;;;9.53;70.07;101051.91;4149121;28;20145;-69
2023/04/08 04:33:00;;;;;;;20.92;14.77;;;;;;;9.47;70.41;101056.91;4149613;28;20042;-69
2023/04/08 04:35:04;;;;;;;21.23;15.63;;;;;;;9.45;70.88;101066.41;4150442;28;20125;-69
2023/04/08 04:37:07;;;;;;;22.20;16.08;;;;;;;9.48;70.37;101068.22;4150320;28;20045;-68
2023/04/08 04:39:09;;;;;;;22.67;15.45;;;;;;;9.43;70.75;101066.34;4150380;28;20076;-69
2023/04/08 04:41:12;;;;;;;22.02;15.32;;;;;;;9.48;70.89;101068.22;4150767;28;20383;-69
2023/04/08 04:43:15;;;;;;;22.02;15.45;;;;;;;9.43;71.20;101068.94;4149607;28;20049;-68
2023/04/08 04:45:19;;;;;;;24.27;16.15;;;;;;;9.44;71.04;101064.63;4150274;28;20042;-69
2023/04/08 04:47:22;;;;;;;24.33;16.23;;;;;;;9.42;70.90;101058.53;4150653;28;20045;-69
2023/04/08 04:49:25;;;;;;;23.73;15.30;;;;;;;9.36;70.92;101064.41;4148911;28;20069;-69
2023/04/08 04:51:28;;;;;;;22.67;15.02;;;;;;;9.38;70.94;101065.31;4150113;28;20041;-69
2023/04/08 04:53:31;;;;;;;22.55;16.60;;;;;;;9.42;71.15;101072.38;4148066;28;20046;-69
2023/04/08 04:55:34;;;;;;;21.35;14.57;;;;;;;9.41;71.27;101074.94;4148781;28;20408;-69
2023/04/08 04:57:39;;;;;;;22.88;15.52;;;;;;;9.45;71.05;101071.59;4148805;28;20156;-69
2023/04/08 04:59:42;;;;;;;23.40;15.30;;;;;;;9.41;70.95;101080.13;4149993;28;20045;-69
2023/04/08 05:01:46;;;;;;;23.25;15.05;;;;;;;9.40;71.15;101076.66;4148615;28;20612;-69
2023/04/08 05:03:49;;;;;;;22.38;15.48;;;;;;;9.33;71.23;101081.59;4149303;28;20040;-69
2023/04/08 05:05:52;;;;;;;23.38;16.38;;;;;;;9.37;71.16;101075.66;4149928;28;20049;-69
2023/04/08 05:07:55;;;;;;;22.73;16.15;;;;;;;9.34;71.21;101079.03;4149857;28;20109;-69
2023/04/08 05:09:58;;;;;;;19.80;14.48;;;;;;;9.37;71.51;101083.44;4148632;28;20038;-70
2023/04/08 05:12:01;;;;;;;23.98;14.25;;;;;;;9.38;71.32;101083.50;4148773;28;20084;-69
2023/04/08 05:14:03;;;;;;;23.98;15.77;;;;;;;9.38;71.24;101080.03;4149361;28;20507;-69
2023/04/08 05:16:07;;;;;;;24.08;15.82;;;;;;;9.27;71.62;101082.28;4132289;28;20050;-70
2023/04/08 05:18:11;;;;;;;25.23;15.90;;;;;;;9.36;71.03;101087.78;4148659;28;20078;-70
2023/04/08 05:20:14;;;;;;;22.30;14.55;;;;;;;9.33;71.00;101091.97;4149728;28;20125;-70
2023/04/08 05:22:19;;;;;;;20.77;13.63;;;;;;;9.26;70.76;101085.75;4148968;28;20406;-69
2023/04/08 05:24:22;;;;;;;18.80;12.98;;;;;;;9.34;71.13;101093.75;4148410;28;20061;-70
2023/04/08 05:26:25;;;;;;;25.08;14.77;;;;;;;9.31;70.97;101091.94;4149595;28;20415;-70
2023/04/08 05:28:28;;;;;;;21.20;12.85;;;;;;;9.21;71.30;101095.09;4148263;28;20046;-69
2023/04/08 05:30:31;;;;;;;20.08;14.02;;;;;;;9.43;70.44;101099.19;4149530;28;20042;-69
2023/04/08 05:32:33;;;;;;;16.60;12.15;;;;;;;9.42;70.19;101098.31;4161125;23;20120;-69
2023/04/08 05:34:38;;;;;;;17.42;12.55;;;;;;;9.23;70.68;101109.00;4131801;28;20579;-69
2023/04/08 05:36:41;;;;;;;16.65;11.88;;;;;;;9.29;70.40;101103.09;4133168;28;20039;-69
2023/04/08 05:38:44;;;;;;;17.88;11.65;;;;;;;9.25;70.33;101100.41;4148056;28;20077;-69
2023/04/08 05:40:47;;;;;;;13.75;10.05;;;;;;;9.20;70.27;101103.69;4133053;28;20536;-69
2023/04/08 05:42:50;;;;;;;16.17;10.00;;;;;;;9.18;69.47;101106.25;4119324;28;20038;-70
2023/04/08 05:44:52;;;;;;;15.20;10.13;;;;;;;9.18;69.70;101105.38;4116942;28;20039;-70
2023/04/08 05:46:56;;;;;;;14.35;10.13;;;;;;;9.16;69.60;101110.53;4116830;28;20038;-70
2023/04/08 05:48:59;;;;;;;13.50;9.77;;;;;;;9.23;68.74;101117.66;4117077;28;20038;-70
2023/04/08 05:51:04;;;;;;;14.73;9.35;;;;;;;9.15;68.83;101119.13;4116835;28;20373;-70
2023/04/08 05:53:06;;;;;;;14.77;9.55;;;;;;;9.09;68.49;101111.16;4116053;28;20034;-70
2023/04/08 05:55:09;;;;;;;14.60;10.15;;;;;;;9.05;68.48;101117.09;4116743;28;20035;-70
2023/04/08 05:57:12;;;;;;;18.95;11.45;;;;;;;9.07;68.48;101124.09;4131606;28;20416;-70
2023/04/08 05:59:15;;;;;;;19.08;11.20;;;;;;;9.18;68.38;101121.81;4131441;28;20081;-70
2023/04/08 06:01:18;;;;;;;20.25;11.73;;;;;;;9.34;67.70;101123.16;4116605;28;20051;-70
2023/04/08 06:03:21;;;;;;;27.52;11.90;;;;;;;9.34;67.49;101130.06;4115840;28;20155;-69
2023/04/08 06:05:24;;;;;;;20.60;11.57;;;;;;;9.34;66.68;101130.94;4116633;28;20050;-70
2023/04/08 06:07:29;;;;;;;18.85;11.35;;;;;;;9.36;66.32;101131.88;4116622;28;20039;-70
2023/04/08 06:09:35;;;;;;;18.92;11.75;;;;;;;9.36;66.09;101133.56;4099297;28;20039;-69
2023/04/08 06:11:38;;;;;;;16.33;10.68;;;;;;;9.39;66.13;101136.28;4116482;28;20042;-69
2023/04/08 06:13:41;;;;;;;15.98;10.98;;;;;;;9.49;65.82;101134.81;4114630;28;20043;-71
2023/04/08 06:15:44;;;;;;;17.10;10.45;;;;;;;9.49;65.71;101137.44;4116383;28;20157;-71
2023/04/08 06:17:47;;;;;;;18.00;10.45;;;;;;;9.49;65.93;101145.22;4116505;28;20046;-71
2023/04/08 06:19:50;;;;;;;20.17;10.05;;;;;;;9.48;65.99;101139.16;4116353;28;20039;-71
2023/04/08 06:21:57;;;;;;;17.83;10.77;;;;;;;9.45;66.22;101144.25;4116495;28;20035;-71
2023/04/08 06:24:01;;;;;;;16.63;10.32;;;;;;;9.55;65.32;101150.56;4130583;28;20058;-71
2023/04/08 06:26:04;;;;;;;12.30;8.73;;;;;;;9.40;65.40;101154.50;4116339;28;20043;-71
2023/04/08 06:28:07;;;;;;;12.82;9.20;;;;;;;9.59;64.07;101152.44;4116301;28;20460;-71
2023/04/08 06:30:11;;;;;;;11.55;9.05;;;;;;;9.47;64.23;101150.34;4131078;28;20069;-70
2023/04/08 06:32:14;;;;;;;10.95;8.25;;;;;;;9.42;64.09;101155.41;4115303;28;20046;-71
2023/04/08 06:34:17;;;;;;;11.10;8.60;;;;;;;9.47;63.74;101159.88;4116098;28;20039;-71
2023/04/08 06:36:20;;;;;;;12.82;9.68;;;;;;;9.52;63.21;101158.28;4116154;28;20093;-70
2023/04/08 06:38:23;;;;;;;11.27;8.40;;;;;;;9.46;63.45;101152.91;4116133;28;20046;-70
2023/04/08 06:40:27;;;;;;;12.15;9.10;;;;;;;9.54;63.09;101154.03;4130968;28;20070;-70
2023/04/08 06:42:30;;;;;;;14.38;10.27;;;;;;;9.59;62.96;101153.34;4115389;28;20109;-70
2023/04/08 06:44:45;;;;;;;12.68;9.32;;;;;;;9.60;62.80;101143.81;4114578;28;20401;-70
2023/04/08 06:46:48;;;;;;;17.13;10.38;;;;;;;9.50;63.67;101159.97;4114653;28;20050;-71
2023/04/08 06:48:51;;;;;;;15.50;10.35;;;;;;;9.63;63.61;101156.88;4115983;28;20137;-71
2023/04/08 06:50:55;;;;;;;15.30;9.75;;;;;;;9.68;62.99;101163.09;4115922;28;20492;-71
2023/04/08 06:52:59;;;;;;;14.98;9.68;;;;;;;9.76;62.42;101156.41;4130088;28;20042;-71
2023/04/08 06:55:02;;;;;;;14.00;9.57;;;;;;;9.68;62.90;101163.09;4115770;28;20126;-71
2023/04/08 06:57:06;;;;;;;16.70;10.35;;;;;;;9.82;61.65;101157.44;4130650;28;20042;-71
2023/04/08 06:59:09;;;;;;;16.10;11.07;;;;;;;9.74;62.14;101163.28;4115824;28;20035;-72
2023/04/08 07:01:12;;;;;;;20.30;10.52;;;;;;;9.68;62.67;101163.09;4114487;28;20047;-70
2023/04/08 07:03:15;;;;;;;19.15;10.38;;;;;;;9.74;62.13;101163.28;4129841;28;20042;-70
2023/04/08 07:05:18;;;;;;;21.65;11.65;;;;;;;9.76;62.58;101164.19;4130419;28;20070;-70
2023/04/08 07:07:23;;;;;;;22.85;11.90;;;;;;;9.72;62.65;101164.94;4115764;28;20039;-71
2023/04/08 07:09:25;;;;;;;20.90;11.20;;;;;;;9.70;63.12;101166.63;4115693;28;20046;-70
2023/04/08 07:11:28;;;;;;;19.63;11.52;;;;;;;9.71;63.27;101173.56;4115797;28;20046;-70
2023/04/08 07:13:32;;;;;;;19.88;10.70;;;;;;;9.80;63.05;101172.97;4129787;28;20042;-71
2023/04/08 07:15:35;;;;;;;16.92;10.35;;;;;;;9.82;62.56;101170.41;4115614;28;20530;-71
2023/04/08 07:17:39;;;;;;;17.15;11.00;;;;;;;9.83;62.91;101185.13;4115607;28;20105;-71
2023/04/08 07:19:42;;;;;;;24.05;12.77;;;;;;;9.95;62.45;101182.91;4130381;28;20460;-71
2023/04/08 07:21:45;;;;;;;19.10;10.40;;;;;;;9.99;61.97;101182.16;4115516;28;20142;-71
2023/04/08 07:23:48;;;;;;;19.17;11.68;;;;;;;9.97;62.47;101186.41;4115215;28;20404;-71
2023/04/08 07:25:51;;;;;;;18.63;10.38;;;;;;;9.99;62.22;101184.75;4130301;28;20041;-71
2023/04/08 07:27:54;;;;;;;18.15;11.02;;;;;;;10.05;62.53;101190.13;4115552;28;20046;-71
2023/04/08 07:29:58;;;;;;;15.70;10.20;;;;;;;10.11;62.06;101190.28;4114275;28;20061;-71
2023/04/08 07:32:01;;;;;;;14.10;9.82;;;;;;;10.21;61.14;101182.75;4115306;28;20047;-71
2023/04/08 07:34:04;;;;;;;16.73;9.23;;;;;;;10.13;62.22;101193.81;4129284;28;20069;-71
2023/04/08 07:36:07;;;;;;;17.77;10.20;;;;;;;10.09;62.75;101202.34;4115401;28;20050;-71
2023/04/08 07:38:10;;;;;;;17.13;10.07;;;;;;;10.13;62.89;101195.53;4115392;28;20089;-70
2023/04/08 07:40:13;;;;;;;17.65;9.70;;;;;;;10.29;60.91;101194.22;4114091;28;20043;-71
2023/04/08 07:42:17;;;;;;;16.02;9.85;;;;;;;10.22;60.17;101197.50;4114655;28;20039;-70
2023/04/08 07:44:20;;;;;;;18.33;10.20;;;;;;;10.23;60.02;101202.72;4115360;28;20066;-70
2023/04/08 07:46:24;;;;;;;21.17;10.45;;;;;;;10.13;59.43;101203.31;4115341;28;20043;-71
2023/04/08 07:48:27;;;;;;;19.33;10.98;;;;;;;10.14;59.68;101208.53;4130126;28;20068;-71
2023/04/08 07:50:30;;;;;;;15.18;8.95;;;;;;;10.26;58.91;101214.94;4130181;28;20045;-70
2023/04/08 07:52:33;;;;;;;15.63;9.40;;;;;;;10.20;58.82;101210.44;4114612;28;20046;-71
2023/04/08 07:54:36;;;;;;;14.43;9.05;;;;;;;10.16;58.34;101212.91;4130014;28;20532;-71
2023/04/08 07:56:39;;;;;;;18.42;10.40;;;;;;;10.11;59.38;101211.06;4115256;28;20046;-71
2023/04/08 07:58:42;;;;;;;17.90;10.70;;;;;;;10.33;57.83;101214.25;4097965;29;20071;-72
2023/04/08 08:00:45;;;;;;;16.25;9.73;;;;;;;10.28;57.99;101210.69;4115244;28;20150;-71
2023/04/08 08:02:49;;;;;;;13.05;9.10;;;;;;;10.30;58.24;101214.19;4114554;28;20043;-71
2023/04/08 08:04:52;;;;;;;13.65;9.50;;;;;;;10.29;58.70;101215.00;4115195;28;20405;-71
2023/04/08 08:06:55;;;;;;;15.52;9.13;;;;;;;10.20;59.42;101215.63;4113917;28;20054;-71
2023/04/08 08:08:59;;;;;;;13.68;9.60;;;;;;;10.30;59.54;101215.06;4130000;28;20066;-71
2023/04/08 08:11:02;;;;;;;12.98;9.20;;;;;;;10.52;58.07;101223.47;4115109;28;20067;-71
2023/04/08 08:13:05;;;;;;;17.25;10.85;;;;;;;10.45;58.76;101222.44;4113115;28;20050;-71
2023/04/08 08:15:10;;;;;;;14.50;10.07;;;;;;;10.54;58.17;101216.63;4115010;28;20432;-69
2023/04/08 08:17:13;;;;;;;13.55;9.68;;;;;;;10.38;58.62;101219.63;4115097;28;20046;-69
2023/04/08 08:19:17;;;;;;;14.77;9.75;;;;;;;10.36;58.04;101222.19;4115009;28;20054;-69
2023/04/08 08:21:20;;;;;;;15.15;10.52;;;;;;;10.36;58.50;101221.31;4115038;28;20123;-69
2023/04/08 08:23:23;;;;;;;12.82;9.45;;;;;;;10.42;58.48;101222.34;4114399;28;20046;-70
2023/04/08 08:25:26;;;;;;;12.85;9.77;;;;;;;10.51;57.76;101226.03;4129912;28;20133;-69
2023/04/08 08:27:29;;;;;;;14.25;10.18;;;;;;;10.50;58.55;101219.97;4114972;28;20042;-70
2023/04/08 08:29:32;;;;;;;13.10;9.05;;;;;;;10.53;59.01;101225.25;4114922;28;20039;-70
2023/04/08 08:31:35;;;;;;;14.30;8.80;;;;;;;10.74;57.83;101230.13;4113522;28;20053;-69
2023/04/08 08:33:38;;;;;;;12.45;9.35;;;;;;;10.95;56.40;101229.78;4113088;28;20457;-69
2023/04/08 08:35:42;;;;;;;11.27;8.98;;;;;;;10.99;56.53;101225.53;4113617;28;20113;-69
2023/04/08 08:37:45;;;;;;;13.63;10.00;;;;;;;10.87;57.56;101231.31;4129759;28;20042;-69
2023/04/08 08:39:48;;;;;;;12.63;9.48;;;;;;;11.05;56.39;101235.22;4115184;28;20463;-69
2023/04/08 08:41:51;;;;;;;12.52;9.40;;;;;;;11.09;55.30;101227.53;4114824;28;20065;-69
2023/04/08 08:43:57;;;;;;;10.90;8.93;;;;;;;11.05;55.96;101230.00;4129020;28;20046;-69
2023/04/08 08:46:00;;;;;;;16.00;9.15;;;;;;;11.10;55.27;101233.63;4115359;28;20093;-69
2023/04/08 08:48:03;;;;;;;13.82;9.63;;;;;;;11.12;55.69;101235.41;4117828;28;20050;-70
2023/04/08 08:50:07;;;;;;;13.10;9.40;;;;;;;11.07;55.92;101239.63;4132705;28;20053;-69
2023/04/08 08:52:15;;;;;;;12.60;9.50;;;;;;;11.05;56.94;101251.69;4117104;28;20050;-69
2023/04/08 08:54:18;;;;;;;12.10;8.93;;;;;;;11.07;56.96;101255.25;4117730;28;20516;-68
2023/04/08 08:56:21;;;;;;;14.30;9.93;;;;;;;11.28;56.18;101248.78;4117594;28;20472;-69
2023/04/08 08:58:29;;;;;;;14.30;9.85;;;;;;;11.31;56.13;101246.25;4117697;28;20055;-69
2023/04/08 09:00:33;;;;;;;16.10;10.23;;;;;;;11.22;54.82;101252.13;4116401;28;20050;-69
2023/04/08 09:02:36;;;;;;;11.87;8.67;;;;;;;11.10;55.60;101251.84;4131840;28;20092;-72
2023/04/08 09:04:40;;;;;;;11.93;9.27;;;;;;;11.27;54.14;101249.63;4117792;28;20641;-70
2023/04/08 09:06:44;;;;;;;12.95;9.98;;;;;;;11.39;53.44;101257.75;4132509;28;20165;-69
2023/04/08 09:08:48;;;;;;;14.38;9.80;;;;;;;11.44;53.48;101250.03;4117567;28;20043;-70
2023/04/08 09:10:51;;;;;;;14.57;9.73;;;;;;;11.50;55.04;101251.03;4117562;28;20043;-70
2023/04/08 09:12:55;;;;;;;16.25;11.15;;;;;;;11.47;54.87;101256.19;4116820;28;20547;-70
2023/04/08 09:15:09;;;;;;;14.60;10.38;;;;;;;11.43;55.25;101251.75;4117485;28;20047;-70
2023/04/08 09:17:12;;;;;;;13.60;9.93;;;;;;;11.32;55.91;101245.44;4117380;28;20042;-70
2023/04/08 09:19:15;;;;;;;13.85;10.43;;;;;;;11.54;55.83;101249.41;4117384;28;20043;-70
2023/04/08 09:21:23;;;;;;;14.82;10.73;;;;;;;11.77;54.67;101244.72;4117353;28;20038;-71
2023/04/08 09:23:38;;;;;;;13.88;10.43;;;;;;;11.88;53.52;101250.16;4131581;28;20508;-71
2023/04/08 09:25:42;;;;;;;14.48;11.20;;;;;;;12.03;53.35;101254.84;4117380;28;20038;-70
2023/04/08 09:27:45;;;;;;;14.88;10.30;;;;;;;12.12;53.66;101244.63;4132066;28;20042;-71
2023/04/08 09:29:48;;;;;;;13.95;11.07;;;;;;;12.26;53.50;101250.09;4117307;28;20452;-70
2023/04/08 09:31:54;;;;;;;16.08;11.48;;;;;;;12.11;53.70;101252.41;4115828;28;20039;-70